sensor_id;sensor_type;location;lat;lon;timestamp;P1;durP1;ratioP1;P2;durP2;ratioP2
24407;SDS011;12542;50.924;4.516;2024-03-06T00:00:09;10.38;;;6.00;;
24407;SDS011;12542;50.924;4.516;2024-03-06T00:02:35;9.27;;;5.75;;
24407;SDS011;12542;50.924;4.516;2024-03-06T00:05:01;8.25;;;5.57;;
24407;SDS011;12542;50.924;4.516;2024-03-06T00:07:27;8.57;;;6.47;;
24407;SDS011;12542;50.924;4.516;2024-03-06T00:09:53;8.82;;;5.75;;
24407;SDS011;12542;50.924;4.516;2024-03-06T00:12:19;8.10;;;5.53;;
24407;SDS011;12542;50.924;4.516;2024-03-06T00:14:50;9.30;;;5.65;;
24407;SDS011;12542;50.924;4.516;2024-03-06T00:17:15;13.00;;;6.63;;
24407;SDS011;12542;50.924;4.516;2024-03-06T00:19:41;11.18;;;6.47;;
24407;SDS011;12542;50.924;4.516;2024-03-06T00:22:09;8.68;;;5.88;;
24407;SDS011;12542;50.924;4.516;2024-03-06T00:24:35;9.52;;;6.45;;
24407;SDS011;12542;50.924;4.516;2024-03-06T00:27:00;8.40;;;5.90;;
24407;SDS011;12542;50.924;4.516;2024-03-06T00:29:26;13.20;;;6.55;;
24407;SDS011;12542;50.924;4.516;2024-03-06T00:31:52;10.13;;;6.20;;
24407;SDS011;12542;50.924;4.516;2024-03-06T00:34:18;12.05;;;6.80;;
24407;SDS011;12542;50.924;4.516;2024-03-06T00:36:43;9.68;;;6.75;;
24407;SDS011;12542;50.924;4.516;2024-03-06T00:39:09;9.93;;;6.88;;
24407;SDS011;12542;50.924;4.516;2024-03-06T00:41:35;8.60;;;6.03;;
24407;SDS011;12542;50.924;4.516;2024-03-06T00:44:01;9.18;;;6.07;;
24407;SDS011;12542;50.924;4.516;2024-03-06T00:46:28;10.25;;;6.50;;
24407;SDS011;12542;50.924;4.516;2024-03-06T00:48:53;9.35;;;6.95;;
24407;SDS011;12542;50.924;4.516;2024-03-06T00:51:19;11.82;;;6.80;;
24407;SDS011;12542;50.924;4.516;2024-03-06T00:53:45;9.60;;;6.75;;
24407;SDS011;12542;50.924;4.516;2024-03-06T00:56:11;11.75;;;6.95;;
24407;SDS011;12542;50.924;4.516;2024-03-06T00:58:37;10.20;;;6.75;;
24407;SDS011;12542;50.924;4.516;2024-03-06T01:01:07;14.70;;;7.18;;
24407;SDS011;12542;50.924;4.516;2024-03-06T01:03:33;11.70;;;7.53;;
24407;SDS011;12542;50.924;4.516;2024-03-06T01:05:59;10.68;;;7.25;;
24407;SDS011;12542;50.924;4.516;2024-03-06T01:08:24;11.88;;;7.22;;
24407;SDS011;12542;50.924;4.516;2024-03-06T01:10:53;14.25;;;7.95;;
24407;SDS011;12542;50.924;4.516;2024-03-06T01:13:19;11.38;;;7.05;;
24407;SDS011;12542;50.924;4.516;2024-03-06T01:15:45;11.20;;;7.07;;
24407;SDS011;12542;50.924;4.516;2024-03-06T01:18:11;10.52;;;7.35;;
24407;SDS011;12542;50.924;4.516;2024-03-06T01:20:37;9.70;;;6.32;;
24407;SDS011;12542;50.924;4.516;2024-03-06T01:23:03;11.10;;;7.03;;
24407;SDS011;12542;50.924;4.516;2024-03-06T01:25:29;10.27;;;7.05;;
24407;SDS011;12542;50.924;4.516;2024-03-06T01:27:54;13.40;;;7.32;;
24407;SDS011;12542;50.924;4.516;2024-03-06T01:30:20;11.70;;;7.30;;
24407;SDS011;12542;50.924;4.516;2024-03-06T01:32:46;12.75;;;7.95;;
24407;SDS011;12542;50.924;4.516;2024-03-06T01:35:11;12.80;;;7.95;;
24407;SDS011;12542;50.924;4.516;2024-03-06T01:37:37;11.13;;;7.78;;
24407;SDS011;12542;50.924;4.516;2024-03-06T01:40:03;10.48;;;7.63;;
24407;SDS011;12542;50.924;4.516;2024-03-06T01:42:29;14.50;;;8.38;;
24407;SDS011;12542;50.924;4.516;2024-03-06T01:44:55;12.85;;;8.00;;
24407;SDS011;12542;50.924;4.516;2024-03-06T01:47:21;10.20;;;6.97;;
24407;SDS011;12542;50.924;4.516;2024-03-06T01:49:47;12.15;;;7.20;;
24407;SDS011;12542;50.924;4.516;2024-03-06T01:52:13;11.80;;;7.15;;
24407;SDS011;12542;50.924;4.516;2024-03-06T01:54:41;10.93;;;7.20;;
24407;SDS011;12542;50.924;4.516;2024-03-06T01:57:08;9.75;;;6.93;;
24407;SDS011;12542;50.924;4.516;2024-03-06T01:59:35;12.02;;;7.43;;
24407;SDS011;12542;50.924;4.516;2024-03-06T02:02:02;10.88;;;6.78;;
24407;SDS011;12542;50.924;4.516;2024-03-06T02:04:28;10.02;;;7.15;;
24407;SDS011;12542;50.924;4.516;2024-03-06T02:06:55;9.20;;;6.30;;
24407;SDS011;12542;50.924;4.516;2024-03-06T02:09:21;10.30;;;7.07;;
24407;SDS011;12542;50.924;4.516;2024-03-06T02:11:48;9.55;;;7.05;;
24407;SDS011;12542;50.924;4.516;2024-03-06T02:14:15;13.30;;;6.65;;
24407;SDS011;12542;50.924;4.516;2024-03-06T02:16:41;11.27;;;7.43;;
24407;SDS011;12542;50.924;4.516;2024-03-06T02:19:07;11.15;;;7.00;;
24407;SDS011;12542;50.924;4.516;2024-03-06T02:21:33;13.52;;;7.07;;
24407;SDS011;12542;50.924;4.516;2024-03-06T02:23:59;11.02;;;7.35;;
24407;SDS011;12542;50.924;4.516;2024-03-06T02:26:25;9.93;;;7.10;;
24407;SDS011;12542;50.924;4.516;2024-03-06T02:28:51;11.30;;;7.55;;
24407;SDS011;12542;50.924;4.516;2024-03-06T02:31:19;9.65;;;7.28;;
24407;SDS011;12542;50.924;4.516;2024-03-06T02:33:45;12.30;;;7.05;;
24407;SDS011;12542;50.924;4.516;2024-03-06T02:36:12;11.15;;;7.32;;
24407;SDS011;12542;50.924;4.516;2024-03-06T02:38:39;9.73;;;7.03;;
24407;SDS011;12542;50.924;4.516;2024-03-06T02:41:05;14.68;;;6.72;;
24407;SDS011;12542;50.924;4.516;2024-03-06T02:43:32;11.50;;;7.55;;
24407;SDS011;12542;50.924;4.516;2024-03-06T02:45:58;10.35;;;6.60;;
24407;SDS011;12542;50.924;4.516;2024-03-06T02:48:24;10.88;;;6.95;;
24407;SDS011;12542;50.924;4.516;2024-03-06T02:50:49;11.73;;;7.05;;
24407;SDS011;12542;50.924;4.516;2024-03-06T02:53:15;9.45;;;6.72;;
24407;SDS011;12542;50.924;4.516;2024-03-06T02:55:41;10.07;;;6.72;;
24407;SDS011;12542;50.924;4.516;2024-03-06T02:58:07;11.13;;;6.40;;
24407;SDS011;12542;50.924;4.516;2024-03-06T03:00:32;10.50;;;7.25;;
24407;SDS011;12542;50.924;4.516;2024-03-06T03:02:58;9.35;;;6.30;;
24407;SDS011;12542;50.924;4.516;2024-03-06T03:05:24;12.35;;;7.13;;
24407;SDS011;12542;50.924;4.516;2024-03-06T03:07:50;12.20;;;7.65;;
24407;SDS011;12542;50.924;4.516;2024-03-06T03:10:16;10.65;;;6.72;;
24407;SDS011;12542;50.924;4.516;2024-03-06T03:12:42;12.50;;;7.40;;
24407;SDS011;12542;50.924;4.516;2024-03-06T03:15:08;12.88;;;7.40;;
24407;SDS011;12542;50.924;4.516;2024-03-06T03:17:34;10.38;;;7.03;;
24407;SDS011;12542;50.924;4.516;2024-03-06T03:20:00;12.25;;;7.70;;
24407;SDS011;12542;50.924;4.516;2024-03-06T03:22:35;13.35;;;7.32;;
24407;SDS011;12542;50.924;4.516;2024-03-06T03:25:02;11.75;;;6.80;;
24407;SDS011;12542;50.924;4.516;2024-03-06T03:27:28;10.05;;;7.05;;
24407;SDS011;12542;50.924;4.516;2024-03-06T03:29:53;9.23;;;7.20;;
24407;SDS011;12542;50.924;4.516;2024-03-06T03:32:21;11.27;;;7.57;;
24407;SDS011;12542;50.924;4.516;2024-03-06T03:34:47;9.65;;;7.05;;
24407;SDS011;12542;50.924;4.516;2024-03-06T03:37:13;12.02;;;7.53;;
24407;SDS011;12542;50.924;4.516;2024-03-06T03:39:39;9.98;;;6.72;;
24407;SDS011;12542;50.924;4.516;2024-03-06T03:42:05;11.75;;;7.40;;
24407;SDS011;12542;50.924;4.516;2024-03-06T03:44:31;12.60;;;7.55;;
24407;SDS011;12542;50.924;4.516;2024-03-06T03:46:57;11.35;;;7.18;;
24407;SDS011;12542;50.924;4.516;2024-03-06T03:49:22;9.77;;;7.72;;
24407;SDS011;12542;50.924;4.516;2024-03-06T03:51:48;12.48;;;7.57;;
24407;SDS011;12542;50.924;4.516;2024-03-06T03:54:14;10.18;;;7.20;;
24407;SDS011;12542;50.924;4.516;2024-03-06T03:56:39;10.07;;;7.10;;
24407;SDS011;12542;50.924;4.516;2024-03-06T03:59:05;13.77;;;7.47;;
24407;SDS011;12542;50.924;4.516;2024-03-06T04:01:30;10.95;;;7.78;;
24407;SDS011;12542;50.924;4.516;2024-03-06T04:03:56;12.20;;;7.40;;
24407;SDS011;12542;50.924;4.516;2024-03-06T04:06:22;11.43;;;7.20;;
24407;SDS011;12542;50.924;4.516;2024-03-06T04:08:48;11.35;;;7.03;;
24407;SDS011;12542;50.924;4.516;2024-03-06T04:11:13;11.10;;;6.82;;
24407;SDS011;12542;50.924;4.516;2024-03-06T04:13:39;11.52;;;7.43;;
24407;SDS011;12542;50.924;4.516;2024-03-06T04:16:05;11.73;;;7.28;;
24407;SDS011;12542;50.924;4.516;2024-03-06T04:18:31;10.85;;;6.88;;
24407;SDS011;12542;50.924;4.516;2024-03-06T04:21:06;12.18;;;6.55;;
24407;SDS011;12542;50.924;4.516;2024-03-06T04:23:32;12.32;;;8.18;;
24407;SDS011;12542;50.924;4.516;2024-03-06T04:26:01;15.85;;;8.38;;
24407;SDS011;12542;50.924;4.516;2024-03-06T04:28:28;13.73;;;8.40;;
24407;SDS011;12542;50.924;4.516;2024-03-06T04:30:54;16.30;;;8.88;;
24407;SDS011;12542;50.924;4.516;2024-03-06T04:33:20;13.55;;;8.82;;
24407;SDS011;12542;50.924;4.516;2024-03-06T04:35:46;15.00;;;8.68;;
24407;SDS011;12542;50.924;4.516;2024-03-06T04:38:12;13.27;;;8.68;;
24407;SDS011;12542;50.924;4.516;2024-03-06T04:40:38;13.77;;;9.02;;
24407;SDS011;12542;50.924;4.516;2024-03-06T04:43:04;14.23;;;9.02;;
24407;SDS011;12542;50.924;4.516;2024-03-06T04:45:31;12.30;;;7.93;;
24407;SDS011;12542;50.924;4.516;2024-03-06T04:47:57;17.73;;;9.10;;
24407;SDS011;12542;50.924;4.516;2024-03-06T04:50:23;15.43;;;8.70;;
24407;SDS011;12542;50.924;4.516;2024-03-06T04:52:49;18.25;;;8.93;;
24407;SDS011;12542;50.924;4.516;2024-03-06T04:55:15;13.98;;;8.98;;
24407;SDS011;12542;50.924;4.516;2024-03-06T04:57:45;15.77;;;8.88;;
24407;SDS011;12542;50.924;4.516;2024-03-06T05:00:11;14.65;;;9.60;;
24407;SDS011;12542;50.924;4.516;2024-03-06T05:02:37;16.10;;;9.27;;
24407;SDS011;12542;50.924;4.516;2024-03-06T05:05:03;12.10;;;8.73;;
24407;SDS011;12542;50.924;4.516;2024-03-06T05:07:30;13.70;;;9.18;;
24407;SDS011;12542;50.924;4.516;2024-03-06T05:09:57;14.02;;;9.02;;
24407;SDS011;12542;50.924;4.516;2024-03-06T05:12:23;13.85;;;9.10;;
24407;SDS011;12542;50.924;4.516;2024-03-06T05:14:50;15.63;;;9.35;;
24407;SDS011;12542;50.924;4.516;2024-03-06T05:17:16;13.82;;;9.18;;
24407;SDS011;12542;50.924;4.516;2024-03-06T05:19:42;19.80;;;9.77;;
24407;SDS011;12542;50.924;4.516;2024-03-06T05:22:09;18.95;;;9.38;;
24407;SDS011;12542;50.924;4.516;2024-03-06T05:24:36;14.70;;;9.35;;
24407;SDS011;12542;50.924;4.516;2024-03-06T05:27:05;19.17;;;10.18;;
24407;SDS011;12542;50.924;4.516;2024-03-06T05:29:31;17.02;;;10.05;;
24407;SDS011;12542;50.924;4.516;2024-03-06T05:31:57;20.48;;;11.68;;
24407;SDS011;12542;50.924;4.516;2024-03-06T05:34:22;24.25;;;12.52;;
24407;SDS011;12542;50.924;4.516;2024-03-06T05:36:48;19.55;;;12.07;;
24407;SDS011;12542;50.924;4.516;2024-03-06T05:39:14;20.13;;;12.85;;
24407;SDS011;12542;50.924;4.516;2024-03-06T05:41:40;21.17;;;12.57;;
24407;SDS011;12542;50.924;4.516;2024-03-06T05:44:07;22.40;;;12.10;;
24407;SDS011;12542;50.924;4.516;2024-03-06T05:46:35;20.75;;;12.38;;
24407;SDS011;12542;50.924;4.516;2024-03-06T05:49:01;22.15;;;12.73;;
24407;SDS011;12542;50.924;4.516;2024-03-06T05:51:27;25.58;;;14.85;;
24407;SDS011;12542;50.924;4.516;2024-03-06T05:53:53;28.48;;;15.15;;
24407;SDS011;12542;50.924;4.516;2024-03-06T05:56:19;29.65;;;15.30;;
24407;SDS011;12542;50.924;4.516;2024-03-06T05:58:45;33.05;;;16.98;;
24407;SDS011;12542;50.924;4.516;2024-03-06T06:01:17;32.95;;;18.45;;
24407;SDS011;12542;50.924;4.516;2024-03-06T06:03:46;28.63;;;17.63;;
24407;SDS011;12542;50.924;4.516;2024-03-06T06:06:16;31.23;;;17.50;;
24407;SDS011;12542;50.924;4.516;2024-03-06T06:08:42;26.30;;;15.57;;
24407;SDS011;12542;50.924;4.516;2024-03-06T06:11:09;25.17;;;14.73;;
24407;SDS011;12542;50.924;4.516;2024-03-06T06:13:35;25.45;;;14.50;;
24407;SDS011;12542;50.924;4.516;2024-03-06T06:16:00;27.52;;;14.32;;
24407;SDS011;12542;50.924;4.516;2024-03-06T06:18:29;22.90;;;13.10;;
24407;SDS011;12542;50.924;4.516;2024-03-06T06:20:56;20.10;;;13.05;;
24407;SDS011;12542;50.924;4.516;2024-03-06T06:23:23;24.08;;;11.90;;
24407;SDS011;12542;50.924;4.516;2024-03-06T06:25:48;17.17;;;11.13;;
24407;SDS011;12542;50.924;4.516;2024-03-06T06:28:14;14.60;;;10.85;;
24407;SDS011;12542;50.924;4.516;2024-03-06T06:30:40;15.63;;;10.70;;
24407;SDS011;12542;50.924;4.516;2024-03-06T06:33:06;15.00;;;9.77;;
24407;SDS011;12542;50.924;4.516;2024-03-06T06:35:33;15.93;;;9.77;;
24407;SDS011;12542;50.924;4.516;2024-03-06T06:37:59;18.48;;;10.35;;
24407;SDS011;12542;50.924;4.516;2024-03-06T06:40:26;17.90;;;10.43;;
24407;SDS011;12542;50.924;4.516;2024-03-06T06:42:53;16.20;;;9.75;;
24407;SDS011;12542;50.924;4.516;2024-03-06T06:45:21;20.70;;;11.40;;
24407;SDS011;12542;50.924;4.516;2024-03-06T06:47:47;15.32;;;10.60;;
24407;SDS011;12542;50.924;4.516;2024-03-06T06:50:13;13.32;;;9.38;;
24407;SDS011;12542;50.924;4.516;2024-03-06T06:52:40;18.33;;;10.38;;
24407;SDS011;12542;50.924;4.516;2024-03-06T06:55:06;14.82;;;9.43;;
24407;SDS011;12542;50.924;4.516;2024-03-06T06:57:34;13.57;;;8.60;;
24407;SDS011;12542;50.924;4.516;2024-03-06T07:00:00;13.13;;;9.27;;
24407;SDS011;12542;50.924;4.516;2024-03-06T07:02:35;10.23;;;7.88;;
24407;SDS011;12542;50.924;4.516;2024-03-06T07:05:02;11.57;;;7.25;;
24407;SDS011;12542;50.924;4.516;2024-03-06T07:07:29;11.75;;;7.55;;
24407;SDS011;12542;50.924;4.516;2024-03-06T07:09:55;17.10;;;7.32;;
24407;SDS011;12542;50.924;4.516;2024-03-06T07:12:21;10.13;;;7.18;;
24407;SDS011;12542;50.924;4.516;2024-03-06T07:14:47;10.32;;;6.93;;
24407;SDS011;12542;50.924;4.516;2024-03-06T07:17:12;8.30;;;6.30;;
24407;SDS011;12542;50.924;4.516;2024-03-06T07:19:38;11.65;;;7.40;;
24407;SDS011;12542;50.924;4.516;2024-03-06T07:22:04;12.45;;;7.65;;
24407;SDS011;12542;50.924;4.516;2024-03-06T07:24:30;9.23;;;6.13;;
24407;SDS011;12542;50.924;4.516;2024-03-06T07:26:56;12.15;;;6.93;;
24407;SDS011;12542;50.924;4.516;2024-03-06T07:29:22;9.00;;;6.43;;
24407;SDS011;12542;50.924;4.516;2024-03-06T07:31:47;10.57;;;6.93;;
24407;SDS011;12542;50.924;4.516;2024-03-06T07:34:13;19.90;;;11.90;;
24407;SDS011;12542;50.924;4.516;2024-03-06T07:36:42;11.45;;;7.88;;
24407;SDS011;12542;50.924;4.516;2024-03-06T07:39:08;9.57;;;6.78;;
24407;SDS011;12542;50.924;4.516;2024-03-06T07:41:34;10.63;;;6.53;;
24407;SDS011;12542;50.924;4.516;2024-03-06T07:44:00;10.48;;;6.45;;
24407;SDS011;12542;50.924;4.516;2024-03-06T07:46:26;12.10;;;7.00;;
24407;SDS011;12542;50.924;4.516;2024-03-06T07:48:51;12.20;;;6.43;;
24407;SDS011;12542;50.924;4.516;2024-03-06T07:51:17;9.32;;;5.55;;
24407;SDS011;12542;50.924;4.516;2024-03-06T07:53:43;10.02;;;6.63;;
24407;SDS011;12542;50.924;4.516;2024-03-06T07:56:12;12.48;;;6.43;;
24407;SDS011;12542;50.924;4.516;2024-03-06T07:58:38;9.35;;;5.82;;
24407;SDS011;12542;50.924;4.516;2024-03-06T08:01:04;8.77;;;5.72;;
24407;SDS011;12542;50.924;4.516;2024-03-06T08:03:32;10.55;;;5.78;;
24407;SDS011;12542;50.924;4.516;2024-03-06T08:05:59;12.60;;;6.18;;
24407;SDS011;12542;50.924;4.516;2024-03-06T08:08:24;8.10;;;5.57;;
24407;SDS011;12542;50.924;4.516;2024-03-06T08:10:50;10.25;;;5.43;;
24407;SDS011;12542;50.924;4.516;2024-03-06T08:13:16;8.35;;;5.18;;
24407;SDS011;12542;50.924;4.516;2024-03-06T08:15:44;10.60;;;5.32;;
24407;SDS011;12542;50.924;4.516;2024-03-06T08:18:12;7.30;;;4.53;;
24407;SDS011;12542;50.924;4.516;2024-03-06T08:20:39;10.35;;;5.85;;
24407;SDS011;12542;50.924;4.516;2024-03-06T08:23:05;9.52;;;5.63;;
24407;SDS011;12542;50.924;4.516;2024-03-06T08:25:32;9.57;;;5.30;;
24407;SDS011;12542;50.924;4.516;2024-03-06T08:28:00;11.40;;;5.78;;
24407;SDS011;12542;50.924;4.516;2024-03-06T08:30:25;8.40;;;5.32;;
24407;SDS011;12542;50.924;4.516;2024-03-06T08:32:55;7.85;;;5.28;;
24407;SDS011;12542;50.924;4.516;2024-03-06T08:35:26;9.23;;;5.68;;
24407;SDS011;12542;50.924;4.516;2024-03-06T08:37:51;7.90;;;4.63;;
24407;SDS011;12542;50.924;4.516;2024-03-06T08:40:17;9.52;;;5.25;;
24407;SDS011;12542;50.924;4.516;2024-03-06T08:42:43;12.00;;;5.38;;
24407;SDS011;12542;50.924;4.516;2024-03-06T08:45:09;10.15;;;5.22;;
24407;SDS011;12542;50.924;4.516;2024-03-06T08:47:36;10.60;;;5.22;;
24407;SDS011;12542;50.924;4.516;2024-03-06T08:50:04;10.85;;;6.07;;
24407;SDS011;12542;50.924;4.516;2024-03-06T08:52:30;7.72;;;4.47;;
24407;SDS011;12542;50.924;4.516;2024-03-06T08:54:57;12.32;;;5.15;;
24407;SDS011;12542;50.924;4.516;2024-03-06T08:57:24;9.60;;;5.07;;
24407;SDS011;12542;50.924;4.516;2024-03-06T08:59:53;12.35;;;5.53;;
24407;SDS011;12542;50.924;4.516;2024-03-06T09:02:19;8.90;;;4.95;;
24407;SDS011;12542;50.924;4.516;2024-03-06T09:04:45;12.30;;;5.00;;
24407;SDS011;12542;50.924;4.516;2024-03-06T09:07:12;11.63;;;5.65;;
24407;SDS011;12542;50.924;4.516;2024-03-06T09:09:38;9.30;;;4.95;;
24407;SDS011;12542;50.924;4.516;2024-03-06T09:12:08;13.05;;;4.80;;
24407;SDS011;12542;50.924;4.516;2024-03-06T09:14:38;14.43;;;4.80;;
24407;SDS011;12542;50.924;4.516;2024-03-06T09:17:04;8.93;;;5.15;;
24407;SDS011;12542;50.924;4.516;2024-03-06T09:19:31;8.18;;;4.47;;
24407;SDS011;12542;50.924;4.516;2024-03-06T09:21:58;12.70;;;5.70;;
24407;SDS011;12542;50.924;4.516;2024-03-06T09:24:24;13.57;;;5.93;;
24407;SDS011;12542;50.924;4.516;2024-03-06T09:26:50;11.65;;;5.68;;
24407;SDS011;12542;50.924;4.516;2024-03-06T09:29:17;10.18;;;5.75;;
24407;SDS011;12542;50.924;4.516;2024-03-06T09:31:45;13.40;;;6.95;;
24407;SDS011;12542;50.924;4.516;2024-03-06T09:34:11;14.85;;;6.97;;
24407;SDS011;12542;50.924;4.516;2024-03-06T09:36:40;12.95;;;7.00;;
24407;SDS011;12542;50.924;4.516;2024-03-06T09:39:13;15.35;;;6.35;;
24407;SDS011;12542;50.924;4.516;2024-03-06T09:41:45;11.65;;;6.72;;
24407;SDS011;12542;50.924;4.516;2024-03-06T09:44:12;13.60;;;7.30;;
24407;SDS011;12542;50.924;4.516;2024-03-06T09:46:41;10.43;;;6.28;;
24407;SDS011;12542;50.924;4.516;2024-03-06T09:49:09;11.13;;;5.65;;
24407;SDS011;12542;50.924;4.516;2024-03-06T09:51:46;12.00;;;6.50;;
24407;SDS011;12542;50.924;4.516;2024-03-06T09:54:14;11.32;;;6.32;;
24407;SDS011;12542;50.924;4.516;2024-03-06T09:56:42;12.18;;;6.30;;
24407;SDS011;12542;50.924;4.516;2024-03-06T09:59:08;13.48;;;7.05;;
24407;SDS011;12542;50.924;4.516;2024-03-06T10:02:00;12.13;;;6.97;;
24407;SDS011;12542;50.924;4.516;2024-03-06T10:04:32;14.68;;;6.40;;
24407;SDS011;12542;50.924;4.516;2024-03-06T10:06:59;15.13;;;7.25;;
24407;SDS011;12542;50.924;4.516;2024-03-06T10:09:27;11.35;;;7.22;;
24407;SDS011;12542;50.924;4.516;2024-03-06T10:11:54;16.50;;;6.97;;
24407;SDS011;12542;50.924;4.516;2024-03-06T10:14:22;10.85;;;6.35;;
24407;SDS011;12542;50.924;4.516;2024-03-06T10:19:27;10.27;;;5.97;;
24407;SDS011;12542;50.924;4.516;2024-03-06T10:21:54;11.57;;;6.45;;
24407;SDS011;12542;50.924;4.516;2024-03-06T10:24:27;13.90;;;7.32;;
24407;SDS011;12542;50.924;4.516;2024-03-06T10:26:56;13.57;;;6.80;;
24407;SDS011;12542;50.924;4.516;2024-03-06T10:29:24;15.98;;;6.80;;
24407;SDS011;12542;50.924;4.516;2024-03-06T10:34:25;9.48;;;5.60;;
24407;SDS011;12542;50.924;4.516;2024-03-06T10:37:41;10.90;;;6.68;;
24407;SDS011;12542;50.924;4.516;2024-03-06T10:40:10;15.18;;;6.70;;
24407;SDS011;12542;50.924;4.516;2024-03-06T10:46:08;9.57;;;6.18;;
24407;SDS011;12542;50.924;4.516;2024-03-06T10:48:37;10.95;;;6.28;;
24407;SDS011;12542;50.924;4.516;2024-03-06T10:51:05;11.15;;;6.03;;
24407;SDS011;12542;50.924;4.516;2024-03-06T10:53:32;12.18;;;5.95;;
24407;SDS011;12542;50.924;4.516;2024-03-06T10:56:00;10.13;;;5.30;;
24407;SDS011;12542;50.924;4.516;2024-03-06T10:58:28;7.15;;;5.13;;
24407;SDS011;12542;50.924;4.516;2024-03-06T11:00:55;6.75;;;3.90;;
24407;SDS011;12542;50.924;4.516;2024-03-06T11:03:23;8.45;;;4.47;;
24407;SDS011;12542;50.924;4.516;2024-03-06T11:05:51;9.18;;;5.18;;
24407;SDS011;12542;50.924;4.516;2024-03-06T11:08:17;7.80;;;5.00;;
24407;SDS011;12542;50.924;4.516;2024-03-06T11:10:43;7.93;;;5.30;;
24407;SDS011;12542;50.924;4.516;2024-03-06T11:15:51;13.77;;;5.70;;
24407;SDS011;12542;50.924;4.516;2024-03-06T11:26:36;9.02;;;5.30;;
24407;SDS011;12542;50.924;4.516;2024-03-06T11:29:02;8.55;;;5.38;;
24407;SDS011;12542;50.924;4.516;2024-03-06T11:31:27;10.05;;;5.15;;
24407;SDS011;12542;50.924;4.516;2024-03-06T11:33:53;11.32;;;6.03;;
24407;SDS011;12542;50.924;4.516;2024-03-06T11:36:24;10.73;;;5.65;;
24407;SDS011;12542;50.924;4.516;2024-03-06T11:39:01;10.32;;;5.68;;
24407;SDS011;12542;50.924;4.516;2024-03-06T11:44:12;10.20;;;5.88;;
24407;SDS011;12542;50.924;4.516;2024-03-06T11:47:01;10.20;;;4.53;;
24407;SDS011;12542;50.924;4.516;2024-03-06T11:49:33;7.75;;;4.68;;
24407;SDS011;12542;50.924;4.516;2024-03-06T11:52:03;16.52;;;5.93;;
24407;SDS011;12542;50.924;4.516;2024-03-06T11:54:30;10.50;;;4.75;;
24407;SDS011;12542;50.924;4.516;2024-03-06T11:56:58;9.20;;;4.45;;
24407;SDS011;12542;50.924;4.516;2024-03-06T11:59:26;6.72;;;3.95;;
24407;SDS011;12542;50.924;4.516;2024-03-06T12:01:55;9.65;;;4.60;;
24407;SDS011;12542;50.924;4.516;2024-03-06T12:04:22;7.95;;;4.53;;
24407;SDS011;12542;50.924;4.516;2024-03-06T12:06:49;7.32;;;4.38;;
24407;SDS011;12542;50.924;4.516;2024-03-06T12:09:15;7.45;;;4.63;;
24407;SDS011;12542;50.924;4.516;2024-03-06T12:11:41;8.15;;;4.35;;
24407;SDS011;12542;50.924;4.516;2024-03-06T12:14:12;6.97;;;3.92;;
24407;SDS011;12542;50.924;4.516;2024-03-06T12:16:57;9.18;;;4.40;;
24407;SDS011;12542;50.924;4.516;2024-03-06T12:19:27;8.88;;;4.35;;
24407;SDS011;12542;50.924;4.516;2024-03-06T12:21:59;10.40;;;4.47;;
24407;SDS011;12542;50.924;4.516;2024-03-06T12:24:25;8.18;;;4.28;;
24407;SDS011;12542;50.924;4.516;2024-03-06T12:27:08;7.53;;;4.65;;
24407;SDS011;12542;50.924;4.516;2024-03-06T12:29:35;10.25;;;4.85;;
24407;SDS011;12542;50.924;4.516;2024-03-06T12:32:02;7.22;;;4.28;;
24407;SDS011;12542;50.924;4.516;2024-03-06T12:34:28;7.93;;;3.60;;
24407;SDS011;12542;50.924;4.516;2024-03-06T12:36:55;8.10;;;4.13;;
24407;SDS011;12542;50.924;4.516;2024-03-06T12:39:22;5.03;;;3.70;;
24407;SDS011;12542;50.924;4.516;2024-03-06T12:41:51;6.13;;;3.95;;
24407;SDS011;12542;50.924;4.516;2024-03-06T12:44:19;7.20;;;3.85;;
24407;SDS011;12542;50.924;4.516;2024-03-06T12:46:45;6.32;;;3.83;;
24407;SDS011;12542;50.924;4.516;2024-03-06T12:49:10;7.53;;;2.83;;
24407;SDS011;12542;50.924;4.516;2024-03-06T12:51:36;9.77;;;2.70;;
24407;SDS011;12542;50.924;4.516;2024-03-06T12:54:01;6.68;;;2.92;;
24407;SDS011;12542;50.924;4.516;2024-03-06T12:56:31;8.00;;;3.00;;
24407;SDS011;12542;50.924;4.516;2024-03-06T12:58:56;10.60;;;3.13;;
24407;SDS011;12542;50.924;4.516;2024-03-06T13:01:22;9.60;;;3.53;;
24407;SDS011;12542;50.924;4.516;2024-03-06T13:03:50;6.53;;;2.70;;
24407;SDS011;12542;50.924;4.516;2024-03-06T13:06:16;6.28;;;3.00;;
24407;SDS011;12542;50.924;4.516;2024-03-06T13:08:42;4.40;;;2.88;;
24407;SDS011;12542;50.924;4.516;2024-03-06T13:11:07;7.03;;;2.92;;
24407;SDS011;12542;50.924;4.516;2024-03-06T13:13:34;4.80;;;2.78;;
24407;SDS011;12542;50.924;4.516;2024-03-06T13:16:00;5.65;;;2.60;;
24407;SDS011;12542;50.924;4.516;2024-03-06T13:18:26;9.07;;;3.22;;
24407;SDS011;12542;50.924;4.516;2024-03-06T13:20:51;8.35;;;3.38;;
24407;SDS011;12542;50.924;4.516;2024-03-06T13:23:20;6.90;;;2.58;;
24407;SDS011;12542;50.924;4.516;2024-03-06T13:25:47;7.60;;;2.75;;
24407;SDS011;12542;50.924;4.516;2024-03-06T13:28:13;8.68;;;2.63;;
24407;SDS011;12542;50.924;4.516;2024-03-06T13:30:38;6.68;;;2.92;;
24407;SDS011;12542;50.924;4.516;2024-03-06T13:33:04;4.68;;;2.40;;
24407;SDS011;12542;50.924;4.516;2024-03-06T13:35:32;6.05;;;2.45;;
24407;SDS011;12542;50.924;4.516;2024-03-06T13:37:58;6.88;;;2.70;;
24407;SDS011;12542;50.924;4.516;2024-03-06T13:40:24;5.65;;;3.67;;
24407;SDS011;12542;50.924;4.516;2024-03-06T13:42:52;6.63;;;2.80;;
24407;SDS011;12542;50.924;4.516;2024-03-06T13:45:18;9.52;;;2.65;;
24407;SDS011;12542;50.924;4.516;2024-03-06T13:47:43;9.27;;;2.45;;
24407;SDS011;12542;50.924;4.516;2024-03-06T13:50:10;12.23;;;3.58;;
24407;SDS011;12542;50.924;4.516;2024-03-06T13:52:37;10.20;;;4.47;;
24407;SDS011;12542;50.924;4.516;2024-03-06T13:55:03;18.08;;;5.22;;
24407;SDS011;12542;50.924;4.516;2024-03-06T13:57:33;11.88;;;5.43;;
24407;SDS011;12542;50.924;4.516;2024-03-06T14:00:06;4.35;;;2.55;;
24407;SDS011;12542;50.924;4.516;2024-03-06T14:02:45;6.22;;;2.67;;
24407;SDS011;12542;50.924;4.516;2024-03-06T14:05:12;7.85;;;2.90;;
24407;SDS011;12542;50.924;4.516;2024-03-06T14:07:38;5.05;;;2.75;;
24407;SDS011;12542;50.924;4.516;2024-03-06T14:10:05;6.13;;;2.72;;
24407;SDS011;12542;50.924;4.516;2024-03-06T14:12:33;6.28;;;2.65;;
24407;SDS011;12542;50.924;4.516;2024-03-06T14:15:00;7.68;;;2.45;;
24407;SDS011;12542;50.924;4.516;2024-03-06T14:17:26;5.85;;;2.28;;
24407;SDS011;12542;50.924;4.516;2024-03-06T14:19:52;5.57;;;2.40;;
24407;SDS011;12542;50.924;4.516;2024-03-06T14:22:17;4.53;;;2.40;;
24407;SDS011;12542;50.924;4.516;2024-03-06T14:24:43;6.05;;;2.20;;
24407;SDS011;12542;50.924;4.516;2024-03-06T14:27:09;5.90;;;2.03;;
24407;SDS011;12542;50.924;4.516;2024-03-06T14:29:34;5.53;;;2.50;;
24407;SDS011;12542;50.924;4.516;2024-03-06T14:32:00;3.50;;;1.80;;
24407;SDS011;12542;50.924;4.516;2024-03-06T14:34:26;4.60;;;2.15;;
24407;SDS011;12542;50.924;4.516;2024-03-06T14:36:51;3.95;;;1.67;;
24407;SDS011;12542;50.924;4.516;2024-03-06T14:39:18;7.53;;;2.40;;
24407;SDS011;12542;50.924;4.516;2024-03-06T14:41:47;8.32;;;1.90;;
24407;SDS011;12542;50.924;4.516;2024-03-06T14:44:12;6.80;;;2.22;;
24407;SDS011;12542;50.924;4.516;2024-03-06T14:46:39;3.55;;;1.75;;
24407;SDS011;12542;50.924;4.516;2024-03-06T14:49:08;4.97;;;1.45;;
24407;SDS011;12542;50.924;4.516;2024-03-06T14:51:34;6.70;;;2.13;;
24407;SDS011;12542;50.924;4.516;2024-03-06T14:54:00;6.20;;;1.85;;
24407;SDS011;12542;50.924;4.516;2024-03-06T14:56:26;6.10;;;2.25;;
24407;SDS011;12542;50.924;4.516;2024-03-06T14:58:52;5.43;;;1.67;;